sensor_id;sensor_type;location;lat;lon;timestamp;P1;durP1;ratioP1;P2;durP2;ratioP2
15043;SDS011;7619;48.562;8.910;2024-03-17T00:00:06;5.93;;;3.63;;
15043;SDS011;7619;48.562;8.910;2024-03-17T00:02:37;5.73;;;4.50;;
15043;SDS011;7619;48.562;8.910;2024-03-17T00:05:06;4.80;;;3.90;;
15043;SDS011;7619;48.562;8.910;2024-03-17T00:07:34;8.13;;;4.90;;
15043;SDS011;7619;48.562;8.910;2024-03-17T00:10:03;8.57;;;6.27;;
15043;SDS011;7619;48.562;8.910;2024-03-17T00:12:31;8.53;;;6.03;;
15043;SDS011;7619;48.562;8.910;2024-03-17T00:14:59;8.83;;;5.67;;
15043;SDS011;7619;48.562;8.910;2024-03-17T00:17:27;8.30;;;5.47;;
15043;SDS011;7619;48.562;8.910;2024-03-17T00:19:56;6.10;;;4.80;;
15043;SDS011;7619;48.562;8.910;2024-03-17T00:22:24;8.33;;;4.93;;
15043;SDS011;7619;48.562;8.910;2024-03-17T00:24:52;8.87;;;4.73;;
15043;SDS011;7619;48.562;8.910;2024-03-17T00:27:20;6.30;;;4.70;;
15043;SDS011;7619;48.562;8.910;2024-03-17T00:29:48;6.13;;;4.30;;
15043;SDS011;7619;48.562;8.910;2024-03-17T00:32:17;4.53;;;3.67;;
15043;SDS011;7619;48.562;8.910;2024-03-17T00:34:45;4.77;;;4.27;;
15043;SDS011;7619;48.562;8.910;2024-03-17T00:37:13;5.63;;;3.90;;
15043;SDS011;7619;48.562;8.910;2024-03-17T00:39:41;6.07;;;3.67;;
15043;SDS011;7619;48.562;8.910;2024-03-17T00:42:09;4.40;;;3.73;;
15043;SDS011;7619;48.562;8.910;2024-03-17T00:44:37;4.77;;;3.57;;
15043;SDS011;7619;48.562;8.910;2024-03-17T00:47:06;9.63;;;4.23;;
15043;SDS011;7619;48.562;8.910;2024-03-17T00:49:34;6.00;;;4.23;;
15043;SDS011;7619;48.562;8.910;2024-03-17T00:52:03;5.83;;;4.43;;
15043;SDS011;7619;48.562;8.910;2024-03-17T00:54:31;7.77;;;5.47;;
15043;SDS011;7619;48.562;8.910;2024-03-17T00:56:59;5.70;;;4.93;;
15043;SDS011;7619;48.562;8.910;2024-03-17T00:59:27;7.33;;;5.87;;
15043;SDS011;7619;48.562;8.910;2024-03-17T01:01:55;7.30;;;5.30;;
15043;SDS011;7619;48.562;8.910;2024-03-17T01:04:23;5.73;;;5.00;;
15043;SDS011;7619;48.562;8.910;2024-03-17T01:06:51;5.40;;;4.63;;
15043;SDS011;7619;48.562;8.910;2024-03-17T01:09:19;8.60;;;5.67;;
15043;SDS011;7619;48.562;8.910;2024-03-17T01:11:47;5.17;;;4.23;;
15043;SDS011;7619;48.562;8.910;2024-03-17T01:14:15;5.30;;;4.60;;
15043;SDS011;7619;48.562;8.910;2024-03-17T01:16:43;4.33;;;3.83;;
15043;SDS011;7619;48.562;8.910;2024-03-17T01:19:11;4.70;;;3.93;;
15043;SDS011;7619;48.562;8.910;2024-03-17T01:21:39;5.20;;;4.37;;
15043;SDS011;7619;48.562;8.910;2024-03-17T01:24:07;7.87;;;5.37;;
15043;SDS011;7619;48.562;8.910;2024-03-17T01:26:35;5.53;;;4.47;;
15043;SDS011;7619;48.562;8.910;2024-03-17T01:29:03;4.87;;;4.13;;
15043;SDS011;7619;48.562;8.910;2024-03-17T01:31:31;6.10;;;4.50;;
15043;SDS011;7619;48.562;8.910;2024-03-17T01:33:59;6.00;;;4.77;;
15043;SDS011;7619;48.562;8.910;2024-03-17T01:36:27;6.37;;;4.43;;
15043;SDS011;7619;48.562;8.910;2024-03-17T01:38:56;5.23;;;4.27;;
15043;SDS011;7619;48.562;8.910;2024-03-17T01:41:24;5.80;;;4.57;;
15043;SDS011;7619;48.562;8.910;2024-03-17T01:43:52;5.57;;;5.07;;
15043;SDS011;7619;48.562;8.910;2024-03-17T01:46:20;5.00;;;4.50;;
15043;SDS011;7619;48.562;8.910;2024-03-17T01:48:48;5.90;;;4.70;;
15043;SDS011;7619;48.562;8.910;2024-03-17T01:51:16;4.00;;;3.50;;
15043;SDS011;7619;48.562;8.910;2024-03-17T01:53:45;4.00;;;3.60;;
15043;SDS011;7619;48.562;8.910;2024-03-17T01:56:13;4.47;;;3.30;;
15043;SDS011;7619;48.562;8.910;2024-03-17T01:58:43;5.17;;;4.30;;
15043;SDS011;7619;48.562;8.910;2024-03-17T02:01:11;4.00;;;3.60;;
15043;SDS011;7619;48.562;8.910;2024-03-17T02:03:41;7.00;;;4.20;;
15043;SDS011;7619;48.562;8.910;2024-03-17T02:06:09;4.17;;;3.77;;
15043;SDS011;7619;48.562;8.910;2024-03-17T02:08:46;6.27;;;4.20;;
15043;SDS011;7619;48.562;8.910;2024-03-17T02:11:23;5.93;;;4.10;;
15043;SDS011;7619;48.562;8.910;2024-03-17T02:13:51;4.20;;;3.80;;
15043;SDS011;7619;48.562;8.910;2024-03-17T02:16:19;4.50;;;3.97;;
15043;SDS011;7619;48.562;8.910;2024-03-17T02:18:47;5.93;;;3.93;;
15043;SDS011;7619;48.562;8.910;2024-03-17T02:21:16;6.03;;;3.77;;
15043;SDS011;7619;48.562;8.910;2024-03-17T02:23:44;6.23;;;3.90;;
15043;SDS011;7619;48.562;8.910;2024-03-17T02:26:12;5.10;;;4.30;;
15043;SDS011;7619;48.562;8.910;2024-03-17T02:28:40;5.47;;;3.87;;
15043;SDS011;7619;48.562;8.910;2024-03-17T02:31:09;4.10;;;3.67;;
15043;SDS011;7619;48.562;8.910;2024-03-17T02:33:37;3.50;;;3.17;;
15043;SDS011;7619;48.562;8.910;2024-03-17T02:36:05;3.97;;;3.47;;
15043;SDS011;7619;48.562;8.910;2024-03-17T02:38:34;5.07;;;3.03;;
15043;SDS011;7619;48.562;8.910;2024-03-17T02:41:20;4.10;;;3.20;;
15043;SDS011;7619;48.562;8.910;2024-03-17T02:43:48;5.93;;;4.20;;
15043;SDS011;7619;48.562;8.910;2024-03-17T02:46:17;6.40;;;3.73;;
15043;SDS011;7619;48.562;8.910;2024-03-17T02:48:48;4.93;;;3.50;;
15043;SDS011;7619;48.562;8.910;2024-03-17T02:51:15;4.13;;;3.30;;
15043;SDS011;7619;48.562;8.910;2024-03-17T02:53:44;3.87;;;3.33;;
15043;SDS011;7619;48.562;8.910;2024-03-17T02:56:13;4.83;;;3.90;;
15043;SDS011;7619;48.562;8.910;2024-03-17T02:58:43;4.17;;;3.43;;
15043;SDS011;7619;48.562;8.910;2024-03-17T03:01:13;4.43;;;3.93;;
15043;SDS011;7619;48.562;8.910;2024-03-17T03:03:41;5.87;;;3.73;;
15043;SDS011;7619;48.562;8.910;2024-03-17T03:06:09;4.40;;;3.57;;
15043;SDS011;7619;48.562;8.910;2024-03-17T03:08:38;4.43;;;3.60;;
15043;SDS011;7619;48.562;8.910;2024-03-17T03:11:07;6.43;;;3.87;;
15043;SDS011;7619;48.562;8.910;2024-03-17T03:13:38;7.63;;;4.07;;
15043;SDS011;7619;48.562;8.910;2024-03-17T03:16:06;4.80;;;3.80;;
15043;SDS011;7619;48.562;8.910;2024-03-17T03:18:35;6.37;;;4.07;;
15043;SDS011;7619;48.562;8.910;2024-03-17T03:21:03;4.20;;;3.80;;
15043;SDS011;7619;48.562;8.910;2024-03-17T03:23:32;5.00;;;4.13;;
15043;SDS011;7619;48.562;8.910;2024-03-17T03:26:01;4.87;;;4.30;;
15043;SDS011;7619;48.562;8.910;2024-03-17T03:28:30;6.23;;;4.27;;
15043;SDS011;7619;48.562;8.910;2024-03-17T03:30:58;5.67;;;4.07;;
15043;SDS011;7619;48.562;8.910;2024-03-17T03:33:26;4.60;;;3.70;;
15043;SDS011;7619;48.562;8.910;2024-03-17T03:35:54;3.67;;;3.20;;
15043;SDS011;7619;48.562;8.910;2024-03-17T03:38:22;6.30;;;4.07;;
15043;SDS011;7619;48.562;8.910;2024-03-17T03:40:50;4.30;;;3.77;;
15043;SDS011;7619;48.562;8.910;2024-03-17T03:43:19;5.77;;;3.50;;
15043;SDS011;7619;48.562;8.910;2024-03-17T03:45:47;4.13;;;3.73;;
15043;SDS011;7619;48.562;8.910;2024-03-17T03:48:15;3.63;;;3.30;;
15043;SDS011;7619;48.562;8.910;2024-03-17T03:50:43;4.37;;;3.30;;
15043;SDS011;7619;48.562;8.910;2024-03-17T03:53:11;3.63;;;2.80;;
15043;SDS011;7619;48.562;8.910;2024-03-17T03:55:39;5.43;;;3.57;;
15043;SDS011;7619;48.562;8.910;2024-03-17T03:58:08;5.73;;;4.20;;
15043;SDS011;7619;48.562;8.910;2024-03-17T04:00:36;4.63;;;3.30;;
15043;SDS011;7619;48.562;8.910;2024-03-17T04:03:06;4.27;;;3.70;;
15043;SDS011;7619;48.562;8.910;2024-03-17T04:05:34;3.80;;;3.13;;
15043;SDS011;7619;48.562;8.910;2024-03-17T04:08:02;4.73;;;3.23;;
15043;SDS011;7619;48.562;8.910;2024-03-17T04:10:30;4.20;;;3.90;;
15043;SDS011;7619;48.562;8.910;2024-03-17T04:12:58;6.70;;;3.83;;
15043;SDS011;7619;48.562;8.910;2024-03-17T04:15:26;4.30;;;3.90;;
15043;SDS011;7619;48.562;8.910;2024-03-17T04:17:55;6.17;;;4.00;;
15043;SDS011;7619;48.562;8.910;2024-03-17T04:20:23;4.57;;;3.50;;
15043;SDS011;7619;48.562;8.910;2024-03-17T04:22:51;5.87;;;4.07;;
15043;SDS011;7619;48.562;8.910;2024-03-17T04:25:19;4.10;;;3.70;;
15043;SDS011;7619;48.562;8.910;2024-03-17T04:27:47;5.93;;;3.93;;
15043;SDS011;7619;48.562;8.910;2024-03-17T04:30:16;3.83;;;3.33;;
15043;SDS011;7619;48.562;8.910;2024-03-17T04:32:44;4.27;;;3.50;;
15043;SDS011;7619;48.562;8.910;2024-03-17T04:35:12;4.63;;;3.40;;
15043;SDS011;7619;48.562;8.910;2024-03-17T04:37:40;5.10;;;3.73;;
15043;SDS011;7619;48.562;8.910;2024-03-17T04:40:09;4.37;;;3.40;;
15043;SDS011;7619;48.562;8.910;2024-03-17T04:42:38;5.17;;;3.80;;
15043;SDS011;7619;48.562;8.910;2024-03-17T04:45:07;5.47;;;3.47;;
15043;SDS011;7619;48.562;8.910;2024-03-17T04:47:37;5.43;;;2.90;;
15043;SDS011;7619;48.562;8.910;2024-03-17T04:50:05;4.20;;;3.80;;
15043;SDS011;7619;48.562;8.910;2024-03-17T04:52:33;4.37;;;3.67;;
15043;SDS011;7619;48.562;8.910;2024-03-17T04:55:02;8.57;;;3.77;;
15043;SDS011;7619;48.562;8.910;2024-03-17T04:57:30;6.03;;;3.47;;
15043;SDS011;7619;48.562;8.910;2024-03-17T04:59:58;4.83;;;3.57;;
15043;SDS011;7619;48.562;8.910;2024-03-17T05:02:27;5.20;;;4.00;;
15043;SDS011;7619;48.562;8.910;2024-03-17T05:04:55;4.80;;;3.33;;
15043;SDS011;7619;48.562;8.910;2024-03-17T05:07:23;5.93;;;4.03;;
15043;SDS011;7619;48.562;8.910;2024-03-17T05:09:51;5.40;;;3.63;;
15043;SDS011;7619;48.562;8.910;2024-03-17T05:12:19;4.77;;;3.80;;
15043;SDS011;7619;48.562;8.910;2024-03-17T05:14:47;5.13;;;4.60;;
15043;SDS011;7619;48.562;8.910;2024-03-17T05:17:15;4.67;;;4.10;;
15043;SDS011;7619;48.562;8.910;2024-03-17T05:19:43;5.27;;;3.60;;
15043;SDS011;7619;48.562;8.910;2024-03-17T05:22:11;4.40;;;4.00;;
15043;SDS011;7619;48.562;8.910;2024-03-17T05:24:39;3.60;;;3.30;;
15043;SDS011;7619;48.562;8.910;2024-03-17T05:27:07;4.37;;;3.40;;
15043;SDS011;7619;48.562;8.910;2024-03-17T05:29:35;3.80;;;3.40;;
15043;SDS011;7619;48.562;8.910;2024-03-17T05:32:04;6.57;;;3.77;;
15043;SDS011;7619;48.562;8.910;2024-03-17T05:34:32;4.90;;;4.00;;
15043;SDS011;7619;48.562;8.910;2024-03-17T05:37:00;3.63;;;3.23;;
15043;SDS011;7619;48.562;8.910;2024-03-17T05:39:28;3.40;;;3.10;;
15043;SDS011;7619;48.562;8.910;2024-03-17T05:41:57;5.03;;;4.10;;
15043;SDS011;7619;48.562;8.910;2024-03-17T05:44:25;4.40;;;3.90;;
15043;SDS011;7619;48.562;8.910;2024-03-17T05:46:54;4.90;;;4.03;;
15043;SDS011;7619;48.562;8.910;2024-03-17T05:49:24;4.50;;;4.10;;
15043;SDS011;7619;48.562;8.910;2024-03-17T05:51:52;4.40;;;3.70;;
15043;SDS011;7619;48.562;8.910;2024-03-17T05:54:20;4.23;;;3.83;;
15043;SDS011;7619;48.562;8.910;2024-03-17T05:56:48;7.30;;;3.90;;
15043;SDS011;7619;48.562;8.910;2024-03-17T05:59:16;4.97;;;4.37;;
15043;SDS011;7619;48.562;8.910;2024-03-17T06:01:46;4.87;;;4.37;;
15043;SDS011;7619;48.562;8.910;2024-03-17T06:04:14;5.60;;;3.90;;
15043;SDS011;7619;48.562;8.910;2024-03-17T06:06:42;5.60;;;3.63;;
15043;SDS011;7619;48.562;8.910;2024-03-17T06:09:09;4.50;;;4.10;;
15043;SDS011;7619;48.562;8.910;2024-03-17T06:11:37;3.90;;;3.30;;
15043;SDS011;7619;48.562;8.910;2024-03-17T06:14:05;4.70;;;4.23;;
15043;SDS011;7619;48.562;8.910;2024-03-17T06:16:35;7.57;;;4.00;;
15043;SDS011;7619;48.562;8.910;2024-03-17T06:19:03;4.80;;;3.73;;
15043;SDS011;7619;48.562;8.910;2024-03-17T06:21:31;4.67;;;3.63;;
15043;SDS011;7619;48.562;8.910;2024-03-17T06:23:59;4.50;;;4.00;;
15043;SDS011;7619;48.562;8.910;2024-03-17T06:26:27;4.90;;;3.80;;
15043;SDS011;7619;48.562;8.910;2024-03-17T06:28:57;5.30;;;4.10;;
15043;SDS011;7619;48.562;8.910;2024-03-17T06:31:26;13.70;;;4.77;;
15043;SDS011;7619;48.562;8.910;2024-03-17T06:33:54;4.20;;;3.80;;
15043;SDS011;7619;48.562;8.910;2024-03-17T06:36:22;3.77;;;3.33;;
15043;SDS011;7619;48.562;8.910;2024-03-17T06:38:50;4.87;;;4.07;;
15043;SDS011;7619;48.562;8.910;2024-03-17T06:41:18;5.27;;;4.07;;
15043;SDS011;7619;48.562;8.910;2024-03-17T06:43:46;4.57;;;3.67;;
15043;SDS011;7619;48.562;8.910;2024-03-17T06:46:16;4.50;;;3.93;;
15043;SDS011;7619;48.562;8.910;2024-03-17T06:48:44;4.00;;;3.60;;
15043;SDS011;7619;48.562;8.910;2024-03-17T06:51:12;4.87;;;4.07;;
15043;SDS011;7619;48.562;8.910;2024-03-17T06:53:40;4.00;;;2.93;;
15043;SDS011;7619;48.562;8.910;2024-03-17T06:56:08;4.33;;;3.60;;
15043;SDS011;7619;48.562;8.910;2024-03-17T06:58:36;3.93;;;3.53;;
15043;SDS011;7619;48.562;8.910;2024-03-17T07:01:04;5.70;;;4.00;;
15043;SDS011;7619;48.562;8.910;2024-03-17T07:03:32;3.47;;;3.17;;
15043;SDS011;7619;48.562;8.910;2024-03-17T07:06:01;3.87;;;3.30;;
15043;SDS011;7619;48.562;8.910;2024-03-17T07:08:30;4.53;;;4.03;;
15043;SDS011;7619;48.562;8.910;2024-03-17T07:10:59;3.93;;;3.37;;
15043;SDS011;7619;48.562;8.910;2024-03-17T07:13:29;5.00;;;3.83;;
15043;SDS011;7619;48.562;8.910;2024-03-17T07:15:58;7.03;;;3.73;;
15043;SDS011;7619;48.562;8.910;2024-03-17T07:18:27;5.40;;;3.47;;
15043;SDS011;7619;48.562;8.910;2024-03-17T07:20:56;4.53;;;3.90;;
15043;SDS011;7619;48.562;8.910;2024-03-17T07:23:25;3.70;;;3.37;;
15043;SDS011;7619;48.562;8.910;2024-03-17T07:25:54;5.10;;;4.13;;
15043;SDS011;7619;48.562;8.910;2024-03-17T07:28:22;7.37;;;3.93;;
15043;SDS011;7619;48.562;8.910;2024-03-17T07:30:51;4.70;;;3.67;;
15043;SDS011;7619;48.562;8.910;2024-03-17T07:33:19;4.10;;;3.63;;
15043;SDS011;7619;48.562;8.910;2024-03-17T07:35:48;3.00;;;2.70;;
15043;SDS011;7619;48.562;8.910;2024-03-17T07:38:16;3.70;;;3.20;;
15043;SDS011;7619;48.562;8.910;2024-03-17T07:40:44;3.97;;;3.57;;
15043;SDS011;7619;48.562;8.910;2024-03-17T07:43:13;3.83;;;3.43;;
15043;SDS011;7619;48.562;8.910;2024-03-17T07:45:41;3.50;;;3.00;;
15043;SDS011;7619;48.562;8.910;2024-03-17T07:48:11;3.67;;;2.70;;
15043;SDS011;7619;48.562;8.910;2024-03-17T07:50:39;3.43;;;2.93;;
15043;SDS011;7619;48.562;8.910;2024-03-17T07:53:07;4.00;;;3.07;;
15043;SDS011;7619;48.562;8.910;2024-03-17T07:55:35;5.03;;;3.53;;
15043;SDS011;7619;48.562;8.910;2024-03-17T07:58:03;2.70;;;2.50;;
15043;SDS011;7619;48.562;8.910;2024-03-17T08:00:31;3.40;;;3.10;;
15043;SDS011;7619;48.562;8.910;2024-03-17T08:02:59;3.67;;;3.37;;
15043;SDS011;7619;48.562;8.910;2024-03-17T08:05:27;3.37;;;2.67;;
15043;SDS011;7619;48.562;8.910;2024-03-17T08:07:55;4.77;;;3.10;;
15043;SDS011;7619;48.562;8.910;2024-03-17T08:10:23;4.07;;;3.40;;
15043;SDS011;7619;48.562;8.910;2024-03-17T08:12:51;3.50;;;3.20;;
15043;SDS011;7619;48.562;8.910;2024-03-17T08:15:19;4.63;;;3.03;;
15043;SDS011;7619;48.562;8.910;2024-03-17T08:17:47;6.20;;;3.13;;
15043;SDS011;7619;48.562;8.910;2024-03-17T08:20:15;4.10;;;3.50;;
15043;SDS011;7619;48.562;8.910;2024-03-17T08:22:43;4.33;;;3.27;;
15043;SDS011;7619;48.562;8.910;2024-03-17T08:25:11;5.23;;;2.70;;
15043;SDS011;7619;48.562;8.910;2024-03-17T08:27:39;3.17;;;2.63;;
15043;SDS011;7619;48.562;8.910;2024-03-17T08:30:09;3.27;;;2.97;;
15043;SDS011;7619;48.562;8.910;2024-03-17T08:32:37;3.13;;;2.83;;
15043;SDS011;7619;48.562;8.910;2024-03-17T08:35:06;5.10;;;2.97;;
15043;SDS011;7619;48.562;8.910;2024-03-17T08:37:36;3.43;;;3.13;;
15043;SDS011;7619;48.562;8.910;2024-03-17T08:40:05;3.03;;;2.60;;
15043;SDS011;7619;48.562;8.910;2024-03-17T08:42:33;3.10;;;2.90;;
15043;SDS011;7619;48.562;8.910;2024-03-17T08:45:01;3.33;;;3.03;;
15043;SDS011;7619;48.562;8.910;2024-03-17T08:47:30;3.33;;;2.93;;
15043;SDS011;7619;48.562;8.910;2024-03-17T08:49:58;4.97;;;3.30;;
15043;SDS011;7619;48.562;8.910;2024-03-17T08:52:28;3.67;;;3.30;;
15043;SDS011;7619;48.562;8.910;2024-03-17T08:54:56;4.97;;;2.97;;
15043;SDS011;7619;48.562;8.910;2024-03-17T08:57:24;3.60;;;3.17;;
15043;SDS011;7619;48.562;8.910;2024-03-17T08:59:52;3.77;;;3.40;;
15043;SDS011;7619;48.562;8.910;2024-03-17T09:02:20;4.23;;;2.90;;
15043;SDS011;7619;48.562;8.910;2024-03-17T09:04:48;3.07;;;2.77;;
15043;SDS011;7619;48.562;8.910;2024-03-17T09:07:16;2.83;;;2.53;;
15043;SDS011;7619;48.562;8.910;2024-03-17T09:09:47;2.70;;;2.50;;
15043;SDS011;7619;48.562;8.910;2024-03-17T09:12:15;5.40;;;3.00;;
15043;SDS011;7619;48.562;8.910;2024-03-17T09:14:43;3.67;;;2.90;;
15043;SDS011;7619;48.562;8.910;2024-03-17T09:17:13;4.40;;;2.40;;
15043;SDS011;7619;48.562;8.910;2024-03-17T09:19:41;3.87;;;2.87;;
15043;SDS011;7619;48.562;8.910;2024-03-17T09:22:09;3.77;;;2.57;;
15043;SDS011;7619;48.562;8.910;2024-03-17T09:24:37;3.40;;;3.10;;
15043;SDS011;7619;48.562;8.910;2024-03-17T09:27:05;3.30;;;3.00;;
15043;SDS011;7619;48.562;8.910;2024-03-17T09:29:33;4.33;;;3.53;;
15043;SDS011;7619;48.562;8.910;2024-03-17T09:32:01;9.87;;;4.97;;
15043;SDS011;7619;48.562;8.910;2024-03-17T09:34:29;4.17;;;3.77;;
15043;SDS011;7619;48.562;8.910;2024-03-17T09:36:58;3.37;;;3.07;;
15043;SDS011;7619;48.562;8.910;2024-03-17T09:39:26;2.90;;;2.60;;
15043;SDS011;7619;48.562;8.910;2024-03-17T09:41:54;12.03;;;10.13;;
15043;SDS011;7619;48.562;8.910;2024-03-17T09:44:22;7.50;;;6.13;;
15043;SDS011;7619;48.562;8.910;2024-03-17T09:46:51;5.17;;;4.67;;
15043;SDS011;7619;48.562;8.910;2024-03-17T09:49:20;7.83;;;5.13;;
15043;SDS011;7619;48.562;8.910;2024-03-17T09:51:48;6.53;;;5.33;;
15043;SDS011;7619;48.562;8.910;2024-03-17T09:54:18;3.17;;;2.80;;
15043;SDS011;7619;48.562;8.910;2024-03-17T09:56:46;5.07;;;3.20;;
15043;SDS011;7619;48.562;8.910;2024-03-17T09:59:14;3.40;;;2.83;;
15043;SDS011;7619;48.562;8.910;2024-03-17T10:01:43;3.33;;;3.03;;
15043;SDS011;7619;48.562;8.910;2024-03-17T10:04:12;4.10;;;3.80;;
15043;SDS011;7619;48.562;8.910;2024-03-17T10:06:45;4.73;;;3.23;;
15043;SDS011;7619;48.562;8.910;2024-03-17T10:09:15;4.37;;;3.20;;
15043;SDS011;7619;48.562;8.910;2024-03-17T10:11:47;2.37;;;2.17;;
15043;SDS011;7619;48.562;8.910;2024-03-17T10:14:17;3.40;;;3.03;;
15043;SDS011;7619;48.562;8.910;2024-03-17T10:16:45;3.10;;;2.27;;
15043;SDS011;7619;48.562;8.910;2024-03-17T10:19:14;5.40;;;4.80;;
15043;SDS011;7619;48.562;8.910;2024-03-17T10:21:43;4.37;;;3.43;;
15043;SDS011;7619;48.562;8.910;2024-03-17T10:24:14;2.87;;;2.10;;
15043;SDS011;7619;48.562;8.910;2024-03-17T10:26:44;2.07;;;1.87;;
15043;SDS011;7619;48.562;8.910;2024-03-17T10:29:20;3.60;;;2.03;;
15043;SDS011;7619;48.562;8.910;2024-03-17T10:31:49;2.30;;;1.90;;
15043;SDS011;7619;48.562;8.910;2024-03-17T10:34:18;4.47;;;2.27;;
15043;SDS011;7619;48.562;8.910;2024-03-17T10:36:47;3.53;;;2.50;;
15043;SDS011;7619;48.562;8.910;2024-03-17T10:39:22;2.03;;;1.93;;
15043;SDS011;7619;48.562;8.910;2024-03-17T10:41:52;2.10;;;1.90;;
15043;SDS011;7619;48.562;8.910;2024-03-17T10:44:20;2.50;;;1.73;;
15043;SDS011;7619;48.562;8.910;2024-03-17T10:46:48;2.23;;;2.00;;
15043;SDS011;7619;48.562;8.910;2024-03-17T10:49:17;2.27;;;1.83;;
15043;SDS011;7619;48.562;8.910;2024-03-17T10:51:46;2.13;;;1.90;;
15043;SDS011;7619;48.562;8.910;2024-03-17T10:54:17;3.07;;;2.07;;
15043;SDS011;7619;48.562;8.910;2024-03-17T10:56:44;1.93;;;1.67;;
15043;SDS011;7619;48.562;8.910;2024-03-17T10:59:13;2.10;;;1.77;;
15043;SDS011;7619;48.562;8.910;2024-03-17T11:01:44;2.30;;;1.50;;
15043;SDS011;7619;48.562;8.910;2024-03-17T11:04:13;1.87;;;1.40;;
15043;SDS011;7619;48.562;8.910;2024-03-17T11:06:41;1.80;;;1.50;;
15043;SDS011;7619;48.562;8.910;2024-03-17T11:09:12;3.00;;;1.70;;
15043;SDS011;7619;48.562;8.910;2024-03-17T11:11:40;3.67;;;1.60;;
15043;SDS011;7619;48.562;8.910;2024-03-17T11:14:16;2.83;;;1.10;;
15043;SDS011;7619;48.562;8.910;2024-03-17T11:16:46;1.53;;;1.23;;
15043;SDS011;7619;48.562;8.910;2024-03-17T11:19:15;1.47;;;1.37;;
15043;SDS011;7619;48.562;8.910;2024-03-17T11:21:44;2.10;;;1.30;;
15043;SDS011;7619;48.562;8.910;2024-03-17T11:24:19;2.63;;;1.20;;
15043;SDS011;7619;48.562;8.910;2024-03-17T11:26:47;1.73;;;1.30;;
15043;SDS011;7619;48.562;8.910;2024-03-17T11:29:28;3.33;;;1.43;;
15043;SDS011;7619;48.562;8.910;2024-03-17T11:31:59;4.13;;;1.20;;
15043;SDS011;7619;48.562;8.910;2024-03-17T11:34:31;1.77;;;1.40;;
15043;SDS011;7619;48.562;8.910;2024-03-17T11:37:00;1.97;;;1.30;;
15043;SDS011;7619;48.562;8.910;2024-03-17T11:45:18;4.13;;;1.40;;
15043;SDS011;7619;48.562;8.910;2024-03-17T11:47:48;1.73;;;1.47;;
15043;SDS011;7619;48.562;8.910;2024-03-17T11:50:17;2.50;;;1.20;;
15043;SDS011;7619;48.562;8.910;2024-03-17T11:52:45;1.70;;;1.40;;
15043;SDS011;7619;48.562;8.910;2024-03-17T11:55:15;0.97;;;0.83;;
15043;SDS011;7619;48.562;8.910;2024-03-17T11:57:44;1.47;;;1.20;;
15043;SDS011;7619;48.562;8.910;2024-03-17T12:00:19;3.60;;;1.03;;
15043;SDS011;7619;48.562;8.910;2024-03-17T12:02:48;1.00;;;0.77;;
15043;SDS011;7619;48.562;8.910;2024-03-17T12:05:16;3.93;;;1.80;;
15043;SDS011;7619;48.562;8.910;2024-03-17T12:07:45;0.87;;;0.80;;
15043;SDS011;7619;48.562;8.910;2024-03-17T12:10:13;2.23;;;1.30;;
15043;SDS011;7619;48.562;8.910;2024-03-17T12:12:41;1.63;;;1.10;;
15043;SDS011;7619;48.562;8.910;2024-03-17T12:15:16;0.90;;;0.73;;
15043;SDS011;7619;48.562;8.910;2024-03-17T12:17:44;0.70;;;0.70;;
15043;SDS011;7619;48.562;8.910;2024-03-17T12:20:17;1.30;;;0.73;;
15043;SDS011;7619;48.562;8.910;2024-03-17T12:22:46;1.30;;;0.80;;
15043;SDS011;7619;48.562;8.910;2024-03-17T12:25:16;3.40;;;1.00;;
15043;SDS011;7619;48.562;8.910;2024-03-17T12:27:44;2.13;;;1.20;;
15043;SDS011;7619;48.562;8.910;2024-03-17T12:30:13;2.93;;;1.13;;
15043;SDS011;7619;48.562;8.910;2024-03-17T12:32:42;1.57;;;1.00;;
15043;SDS011;7619;48.562;8.910;2024-03-17T12:35:12;2.10;;;1.10;;
15043;SDS011;7619;48.562;8.910;2024-03-17T12:37:42;3.03;;;0.80;;
15043;SDS011;7619;48.562;8.910;2024-03-17T12:40:21;2.50;;;0.80;;
15043;SDS011;7619;48.562;8.910;2024-03-17T12:42:50;1.20;;;1.10;;
15043;SDS011;7619;48.562;8.910;2024-03-17T12:45:21;1.53;;;0.77;;
15043;SDS011;7619;48.562;8.910;2024-03-17T12:47:50;1.73;;;0.70;;
15043;SDS011;7619;48.562;8.910;2024-03-17T12:50:19;1.40;;;0.90;;
15043;SDS011;7619;48.562;8.910;2024-03-17T12:52:54;1.30;;;0.63;;
15043;SDS011;7619;48.562;8.910;2024-03-17T12:55:22;1.90;;;0.70;;
15043;SDS011;7619;48.562;8.910;2024-03-17T12:58:09;1.17;;;0.77;;
15043;SDS011;7619;48.562;8.910;2024-03-17T13:00:59;2.30;;;0.70;;
15043;SDS011;7619;48.562;8.910;2024-03-17T13:03:28;3.77;;;0.87;;
15043;SDS011;7619;48.562;8.910;2024-03-17T13:05:56;1.10;;;0.60;;
15043;SDS011;7619;48.562;8.910;2024-03-17T13:08:24;1.93;;;0.93;;
15043;SDS011;7619;48.562;8.910;2024-03-17T13:10:52;3.03;;;0.90;;
15043;SDS011;7619;48.562;8.910;2024-03-17T13:13:20;4.93;;;1.33;;
15043;SDS011;7619;48.562;8.910;2024-03-17T13:15:49;4.20;;;1.00;;
15043;SDS011;7619;48.562;8.910;2024-03-17T13:18:18;1.90;;;0.90;;
15043;SDS011;7619;48.562;8.910;2024-03-17T13:20:46;0.83;;;0.60;;
15043;SDS011;7619;48.562;8.910;2024-03-17T13:23:16;2.03;;;1.03;;
15043;SDS011;7619;48.562;8.910;2024-03-17T13:25:44;0.90;;;0.63;;
15043;SDS011;7619;48.562;8.910;2024-03-17T13:28:12;3.43;;;0.97;;
15043;SDS011;7619;48.562;8.910;2024-03-17T13:30:40;2.47;;;1.03;;
15043;SDS011;7619;48.562;8.910;2024-03-17T13:33:10;1.30;;;0.70;;
15043;SDS011;7619;48.562;8.910;2024-03-17T13:35:39;2.83;;;0.87;;
15043;SDS011;7619;48.562;8.910;2024-03-17T13:38:08;1.57;;;0.90;;
15043;SDS011;7619;48.562;8.910;2024-03-17T13:40:37;1.30;;;1.00;;
15043;SDS011;7619;48.562;8.910;2024-03-17T13:43:06;3.47;;;0.90;;
15043;SDS011;7619;48.562;8.910;2024-03-17T13:45:37;0.67;;;0.63;;
15043;SDS011;7619;48.562;8.910;2024-03-17T13:48:06;1.90;;;1.10;;
15043;SDS011;7619;48.562;8.910;2024-03-17T13:50:37;1.27;;;0.70;;
15043;SDS011;7619;48.562;8.910;2024-03-17T13:53:07;1.27;;;0.70;;
15043;SDS011;7619;48.562;8.910;2024-03-17T13:55:35;1.83;;;0.90;;
15043;SDS011;7619;48.562;8.910;2024-03-17T13:58:04;2.73;;;0.67;;
15043;SDS011;7619;48.562;8.910;2024-03-17T14:00:32;2.13;;;0.70;;
15043;SDS011;7619;48.562;8.910;2024-03-17T14:03:03;0.53;;;0.53;;
15043;SDS011;7619;48.562;8.910;2024-03-17T14:05:31;0.83;;;0.70;;
15043;SDS011;7619;48.562;8.910;2024-03-17T14:08:01;0.97;;;0.60;;
15043;SDS011;7619;48.562;8.910;2024-03-17T14:10:31;0.50;;;0.50;;
15043;SDS011;7619;48.562;8.910;2024-03-17T14:12:59;0.30;;;0.30;;
15043;SDS011;7619;48.562;8.910;2024-03-17T14:15:27;0.80;;;0.60;;
15043;SDS011;7619;48.562;8.910;2024-03-17T14:17:55;1.70;;;0.70;;
15043;SDS011;7619;48.562;8.910;2024-03-17T14:20:23;2.83;;;1.10;;
15043;SDS011;7619;48.562;8.910;2024-03-17T14:22:51;0.87;;;0.57;;
15043;SDS011;7619;48.562;8.910;2024-03-17T14:25:20;1.37;;;0.70;;
15043;SDS011;7619;48.562;8.910;2024-03-17T14:27:49;1.93;;;0.90;;
15043;SDS011;7619;48.562;8.910;2024-03-17T14:30:17;1.03;;;0.70;;
15043;SDS011;7619;48.562;8.910;2024-03-17T14:32:45;3.07;;;0.80;;
15043;SDS011;7619;48.562;8.910;2024-03-17T14:35:14;1.37;;;0.80;;
15043;SDS011;7619;48.562;8.910;2024-03-17T14:37:43;1.80;;;0.50;;
15043;SDS011;7619;48.562;8.910;2024-03-17T14:40:12;2.30;;;0.60;;
15043;SDS011;7619;48.562;8.910;2024-03-17T14:42:43;0.97;;;0.53;;
15043;SDS011;7619;48.562;8.910;2024-03-17T14:45:11;0.50;;;0.50;;
15043;SDS011;7619;48.562;8.910;2024-03-17T14:47:39;2.40;;;0.90;;
15043;SDS011;7619;48.562;8.910;2024-03-17T14:50:08;4.50;;;0.70;;
15043;SDS011;7619;48.562;8.910;2024-03-17T14:52:36;1.93;;;0.90;;
15043;SDS011;7619;48.562;8.910;2024-03-17T14:55:04;0.80;;;0.60;;
15043;SDS011;7619;48.562;8.910;2024-03-17T14:57:32;0.87;;;0.70;;
15043;SDS011;7619;48.562;8.910;2024-03-17T15:00:00;1.00;;;0.50;;
15043;SDS011;7619;48.562;8.910;2024-03-17T15:02:29;0.83;;;0.77;;
15043;SDS011;7619;48.562;8.910;2024-03-17T15:04:57;1.87;;;0.70;;
15043;SDS011;7619;48.562;8.910;2024-03-17T15:07:25;2.30;;;0.63;;
15043;SDS011;7619;48.562;8.910;2024-03-17T15:09:54;1.23;;;0.90;;
15043;SDS011;7619;48.562;8.910;2024-03-17T15:12:22;1.30;;;0.90;;
15043;SDS011;7619;48.562;8.910;2024-03-17T15:14:51;1.30;;;0.80;;